createdAt,value
2022-08-17T00:01:26.273Z,20.33
2022-08-17T00:03:54.473Z,21.70
2022-08-17T00:06:28.122Z,22.75
2022-08-17T00:08:55.755Z,23.20
2022-08-17T00:11:28.540Z,25.27
2022-08-17T00:13:57.382Z,21.50
2022-08-17T00:16:53.457Z,22.27
2022-08-17T00:19:18.557Z,20.35
2022-08-17T00:22:31.233Z,21.40
2022-08-17T00:24:32.780Z,19.63
2022-08-17T00:26:59.427Z,21.83
2022-08-17T00:29:25.693Z,21.85
2022-08-17T00:31:52.230Z,20.52
2022-08-17T00:34:18.991Z,27.40
2022-08-17T00:39:17.063Z,22.17
2022-08-17T00:41:45.687Z,24.42
2022-08-17T00:44:12.220Z,23.75
2022-08-17T00:46:40.429Z,24.23
2022-08-17T00:49:07.575Z,20.98
2022-08-17T00:51:39.691Z,22.02
2022-08-17T00:54:09.248Z,21.45
2022-08-17T00:56:42.836Z,23.88
2022-08-17T00:59:11.120Z,23.27
2022-08-17T01:01:37.987Z,20.77
2022-08-17T01:06:31.683Z,20.35
2022-08-17T01:08:59.522Z,21.00
2022-08-17T01:11:26.589Z,21.65
2022-08-17T01:13:53.329Z,20.73
2022-08-17T01:16:26.556Z,22.05
2022-08-17T01:18:58.650Z,23.33
2022-08-17T01:21:40.149Z,24.30
2022-08-17T01:24:06.725Z,23.95
2022-08-17T01:26:34.291Z,18.98
2022-08-17T01:29:01.354Z,22.52
2022-08-17T01:31:32.778Z,24.45
2022-08-17T01:34:04.213Z,20.55
2022-08-17T01:36:33.529Z,20.73
2022-08-17T01:39:00.342Z,22.73
2022-08-17T01:41:27.107Z,23.33
2022-08-17T01:44:04.100Z,21.38
2022-08-17T01:46:33.396Z,21.58
2022-08-17T01:49:01.167Z,27.05
2022-08-17T01:51:30.754Z,21.33
2022-08-17T01:53:57.966Z,23.08
2022-08-17T01:56:25.603Z,20.67
2022-08-17T01:58:52.379Z,21.13
2022-08-17T02:01:20.201Z,23.63
2022-08-17T02:03:53.126Z,20.70
2022-08-17T02:06:27.908Z,20.80
2022-08-17T02:09:02.723Z,24.92
2022-08-17T02:11:29.794Z,21.60
2022-08-17T02:14:02.862Z,24.55
2022-08-17T02:16:37.744Z,24.98
2022-08-17T02:19:08.282Z,24.27
2022-08-17T02:21:35.739Z,29.08
2022-08-17T02:24:03.134Z,23.90
2022-08-17T02:26:29.556Z,23.85
2022-08-17T02:28:55.900Z,31.60
2022-08-17T02:31:22.257Z,24.23
2022-08-17T02:34:00.394Z,25.80
2022-08-17T02:36:31.852Z,26.13
2022-08-17T02:41:24.972Z,28.05
2022-08-17T02:43:51.419Z,25.30
2022-08-17T02:46:19.500Z,26.27
2022-08-17T02:48:48.618Z,26.65
2022-08-17T02:51:17.910Z,26.17
2022-08-17T02:53:46.781Z,30.23
2022-08-17T02:56:13.313Z,23.38
2022-08-17T02:58:39.652Z,20.95
2022-08-17T03:01:06.931Z,24.73
2022-08-17T03:03:35.853Z,21.25
2022-08-17T03:06:02.549Z,21.25
2022-08-17T03:08:29.234Z,23.55
2022-08-17T03:10:56.028Z,24.73
2022-08-17T03:13:22.518Z,25.88
2022-08-17T03:15:48.977Z,21.42
2022-08-17T03:18:24.784Z,19.35
2022-08-17T03:20:56.821Z,19.98
2022-08-17T03:23:24.312Z,19.65
2022-08-17T03:25:52.940Z,20.98
2022-08-17T03:28:19.801Z,28.00
2022-08-17T03:30:46.328Z,21.45
2022-08-17T03:33:12.657Z,21.08
2022-08-17T03:35:40.371Z,23.05
2022-08-17T03:38:07.615Z,21.50
2022-08-17T03:40:57.892Z,22.27
2022-08-17T03:43:21.579Z,23.38
2022-08-17T03:46:10.747Z,24.13
2022-08-17T03:49:11.955Z,22.75
2022-08-17T03:51:56.845Z,25.30
2022-08-17T03:54:41.820Z,24.60
2022-08-17T03:57:09.935Z,24.52
2022-08-17T03:59:36.727Z,23.17
2022-08-17T04:02:09.123Z,26.13
2022-08-17T04:04:36.277Z,22.83
2022-08-17T04:07:02.708Z,26.38
2022-08-17T04:09:29.139Z,25.90
2022-08-17T04:11:55.429Z,24.85
2022-08-17T04:14:26.619Z,25.50
2022-08-17T04:16:52.909Z,29.33
2022-08-17T04:19:19.317Z,27.33
2022-08-17T04:21:48.661Z,40.08
2022-08-17T04:24:17.316Z,27.20
2022-08-17T04:26:52.957Z,27.90
2022-08-17T04:29:21.301Z,29.42
2022-08-17T04:34:19.700Z,28.95
2022-08-17T04:36:56.049Z,30.88
2022-08-17T04:39:29.286Z,31.77
2022-08-17T04:42:09.095Z,32.40
2022-08-17T04:44:37.402Z,35.78
2022-08-17T04:47:04.557Z,35.95
2022-08-17T04:49:30.861Z,37.95
2022-08-17T04:52:00.120Z,30.40
2022-08-17T04:54:30.639Z,29.95
2022-08-17T04:56:56.947Z,31.65
2022-08-17T04:59:23.289Z,32.35
2022-08-17T05:01:50.952Z,34.67
2022-08-17T05:04:34.343Z,32.60
2022-08-17T05:07:01.962Z,32.83
2022-08-17T05:09:28.963Z,30.75
2022-08-17T05:14:22.711Z,33.55
2022-08-17T05:17:00.011Z,31.92
2022-08-17T05:19:27.520Z,30.33
2022-08-17T05:21:53.849Z,32.63
2022-08-17T05:24:43.141Z,32.97
2022-08-17T05:27:06.874Z,32.08
2022-08-17T05:29:35.457Z,28.33
2022-08-17T05:32:38.550Z,26.83
2022-08-17T05:35:00.958Z,28.50
2022-08-17T05:37:27.374Z,29.88
2022-08-17T05:39:54.395Z,28.35
2022-08-17T05:42:20.874Z,32.90
2022-08-17T05:44:47.350Z,27.23
2022-08-17T05:47:16.617Z,29.73
2022-08-17T05:49:53.836Z,28.70
2022-08-17T05:52:20.423Z,33.97
2022-08-17T05:54:52.916Z,29.80
2022-08-17T05:57:20.954Z,28.50
2022-08-17T05:59:48.400Z,28.65
2022-08-17T06:02:18.900Z,30.05
2022-08-17T06:05:02.417Z,36.03
2022-08-17T06:07:36.515Z,27.02
2022-08-17T06:10:12.259Z,27.33
2022-08-17T06:12:47.872Z,26.58
2022-08-17T06:15:27.256Z,31.75
2022-08-17T06:17:56.324Z,30.15
2022-08-17T06:20:23.368Z,24.33
2022-08-17T06:22:52.108Z,30.42
2022-08-17T06:25:31.656Z,27.13
2022-08-17T06:28:00.699Z,23.70
2022-08-17T06:30:28.701Z,29.20
2022-08-17T06:33:22.742Z,25.73
2022-08-17T06:35:55.954Z,28.77
2022-08-17T06:38:44.994Z,24.92
2022-08-17T06:41:41.753Z,27.13
2022-08-17T06:44:11.980Z,25.75
2022-08-17T06:47:03.101Z,21.25
2022-08-17T06:49:33.158Z,21.98
2022-08-17T06:52:12.203Z,20.10
2022-08-17T06:55:05.152Z,21.63
2022-08-17T06:57:32.790Z,24.00
2022-08-17T07:00:02.451Z,20.42
2022-08-17T07:02:53.271Z,22.55
2022-08-17T07:05:19.372Z,20.67
2022-08-17T07:08:03.864Z,25.65
2022-08-17T07:10:45.742Z,18.20
2022-08-17T07:13:22.884Z,27.40
2022-08-17T07:15:54.027Z,21.15
2022-08-17T07:18:24.627Z,20.88
2022-08-17T07:20:54.099Z,23.35
2022-08-17T07:23:29.441Z,28.65
2022-08-17T07:26:03.850Z,22.63
2022-08-17T07:28:34.161Z,21.42
2022-08-17T07:31:03.860Z,29.17
2022-08-17T07:33:33.363Z,23.52
2022-08-17T07:36:01.105Z,22.83
2022-08-17T07:38:32.608Z,21.80
2022-08-17T07:41:05.082Z,22.73
2022-08-17T07:43:40.552Z,22.75
2022-08-17T07:46:46.754Z,24.58
2022-08-17T07:49:13.034Z,27.55
2022-08-17T07:51:42.391Z,25.15
2022-08-17T07:54:15.312Z,29.85
2022-08-17T07:56:48.069Z,24.02
2022-08-17T07:59:18.376Z,23.42
2022-08-17T08:01:58.928Z,26.17
2022-08-17T08:04:59.303Z,27.47
2022-08-17T08:09:48.889Z,22.00
2022-08-17T08:12:24.672Z,28.10
2022-08-17T08:15:01.775Z,21.08
2022-08-17T08:17:31.944Z,22.45
2022-08-17T08:19:59.661Z,24.05
2022-08-17T08:22:30.394Z,25.20
2022-08-17T08:24:59.793Z,21.05
2022-08-17T08:27:34.397Z,21.05
2022-08-17T08:30:00.722Z,22.08
2022-08-17T08:32:27.015Z,23.73
2022-08-17T08:35:02.664Z,18.45
2022-08-17T08:37:42.503Z,23.35
2022-08-17T08:40:28.243Z,18.67
2022-08-17T08:43:04.558Z,23.13
2022-08-17T08:45:52.299Z,21.90
2022-08-17T08:51:17.321Z,20.25
2022-08-17T08:53:43.666Z,19.73
2022-08-17T08:56:20.656Z,17.20
2022-08-17T08:58:53.052Z,27.80
2022-08-17T09:01:25.294Z,16.02
2022-08-17T09:03:54.971Z,20.00
2022-08-17T09:06:33.339Z,16.25
2022-08-17T09:09:06.392Z,16.20
2022-08-17T09:11:35.666Z,20.38
2022-08-17T09:14:28.749Z,18.08
2022-08-17T09:16:55.603Z,20.42
2022-08-17T09:19:30.739Z,19.88
2022-08-17T09:22:12.073Z,21.92
2022-08-17T09:24:39.987Z,22.58
2022-08-17T09:27:09.070Z,20.42
2022-08-17T09:29:38.873Z,20.13
2022-08-17T09:32:18.216Z,21.98
2022-08-17T09:34:53.574Z,28.95
2022-08-17T09:37:25.355Z,23.27
2022-08-17T09:40:09.932Z,21.98
2022-08-17T09:42:50.160Z,24.85
2022-08-17T09:45:34.877Z,22.85
2022-08-17T09:48:07.295Z,24.33
2022-08-17T09:51:04.141Z,20.48
2022-08-17T09:53:25.150Z,26.27
2022-08-17T09:55:51.489Z,22.35
2022-08-17T09:58:25.663Z,19.33
2022-08-17T10:01:10.905Z,21.08
2022-08-17T10:03:59.713Z,23.30
2022-08-17T10:06:29.573Z,24.73
2022-08-17T10:08:55.989Z,20.85
2022-08-17T10:12:07.237Z,21.80
2022-08-17T10:14:37.553Z,22.73
2022-08-17T10:17:39.389Z,20.33
2022-08-17T10:20:09.307Z,23.35
2022-08-17T10:23:06.881Z,19.08
2022-08-17T10:25:55.868Z,22.05
2022-08-17T10:28:29.532Z,21.10
2022-08-17T10:31:16.735Z,23.95
2022-08-17T10:33:57.668Z,26.35
2022-08-17T10:36:28.993Z,25.75
2022-08-17T10:39:21.604Z,21.65
2022-08-17T10:41:50.723Z,21.80
2022-08-17T10:44:38.932Z,23.02
2022-08-17T10:47:11.615Z,25.83
2022-08-17T10:49:48.615Z,22.88
2022-08-17T10:52:26.162Z,21.20
2022-08-17T10:54:58.279Z,20.75
2022-08-17T10:57:34.118Z,28.95
2022-08-17T11:00:01.879Z,22.15
2022-08-17T11:02:50.594Z,20.48
2022-08-17T11:05:32.317Z,28.33
2022-08-17T11:08:17.485Z,24.25
2022-08-17T11:11:03.103Z,26.20
2022-08-17T11:13:48.373Z,25.60
2022-08-17T11:16:36.002Z,20.95
2022-08-17T11:21:42.619Z,24.98
2022-08-17T11:24:28.434Z,24.75
2022-08-17T11:27:03.482Z,24.30
2022-08-17T11:29:38.954Z,28.27
2022-08-17T11:32:13.454Z,27.55
2022-08-17T11:34:41.727Z,24.20
2022-08-17T11:37:22.417Z,29.17
2022-08-17T11:40:01.593Z,23.60
2022-08-17T11:42:31.159Z,20.25
2022-08-17T11:44:59.376Z,21.92
2022-08-17T11:48:09.073Z,24.17
2022-08-17T11:50:55.823Z,24.02
2022-08-17T11:54:03.616Z,25.23
2022-08-17T11:56:46.268Z,22.98
2022-08-17T11:59:36.924Z,25.30
2022-08-17T12:02:04.363Z,23.45
2022-08-17T12:04:32.688Z,26.27
2022-08-17T12:07:17.977Z,25.08
2022-08-17T12:09:46.159Z,27.33
2022-08-17T12:12:50.080Z,23.08
2022-08-17T12:15:25.335Z,28.20
2022-08-17T12:17:53.410Z,24.42
2022-08-17T12:20:25.971Z,25.50
2022-08-17T12:23:00.838Z,23.65
2022-08-17T12:25:40.791Z,29.77
2022-08-17T12:28:42.648Z,30.98
2022-08-17T12:31:19.030Z,27.10
2022-08-17T12:33:46.582Z,31.02
2022-08-17T12:36:16.689Z,27.48
2022-08-17T12:38:49.977Z,26.85
2022-08-17T12:41:36.676Z,29.10
2022-08-17T12:44:23.286Z,31.45
2022-08-17T12:47:04.784Z,32.03
2022-08-17T12:49:32.681Z,32.45
2022-08-17T12:52:05.770Z,37.85
2022-08-17T12:54:40.694Z,37.45
2022-08-17T12:57:13.544Z,46.67
2022-08-17T12:59:41.234Z,42.97
2022-08-17T13:02:10.359Z,41.65
2022-08-17T13:04:39.827Z,41.33
2022-08-17T13:07:06.739Z,42.88
2022-08-17T13:12:02.723Z,43.55
2022-08-17T13:14:31.567Z,42.03
2022-08-17T13:17:06.295Z,45.88
2022-08-17T13:19:48.209Z,42.08
2022-08-17T13:22:15.889Z,47.42
2022-08-17T13:24:55.524Z,40.28
2022-08-17T13:27:23.169Z,45.15
2022-08-17T13:29:53.463Z,41.83
2022-08-17T13:32:22.918Z,43.42
2022-08-17T13:35:14.339Z,43.05
2022-08-17T13:37:37.667Z,44.88
2022-08-17T13:40:10.164Z,43.85
2022-08-17T13:42:51.741Z,41.05
2022-08-17T13:45:39.170Z,44.10
2022-08-17T13:48:13.549Z,46.05
2022-08-17T13:51:03.323Z,41.22
2022-08-17T13:53:31.308Z,46.75
2022-08-17T13:56:00.664Z,40.45
2022-08-17T13:58:37.679Z,48.20
2022-08-17T14:01:24.276Z,48.90
2022-08-17T14:03:53.752Z,44.72
2022-08-17T14:06:52.095Z,48.72
2022-08-17T14:09:07.911Z,47.05
2022-08-17T14:11:34.354Z,50.22
2022-08-17T14:14:00.897Z,50.47
2022-08-17T14:16:27.212Z,46.25
2022-08-17T14:18:57.274Z,47.63
2022-08-17T14:21:23.813Z,47.85
2022-08-17T14:23:54.377Z,52.30
2022-08-17T14:26:21.466Z,47.33
2022-08-17T14:28:56.551Z,42.40
2022-08-17T14:31:23.674Z,51.08
2022-08-17T14:33:50.058Z,40.50
2022-08-17T14:36:16.410Z,42.03
2022-08-17T14:38:42.917Z,42.72
2022-08-17T14:41:09.307Z,38.22
2022-08-17T14:43:38.124Z,46.47
2022-08-17T14:46:04.768Z,40.83
2022-08-17T14:48:38.180Z,40.38
2022-08-17T14:51:05.017Z,42.40
2022-08-17T14:55:57.626Z,38.28
2022-08-17T14:58:23.980Z,34.90
2022-08-17T15:00:53.330Z,40.55
2022-08-17T15:03:19.715Z,35.60
2022-08-17T15:05:46.781Z,35.75
2022-08-17T15:08:13.092Z,39.22
2022-08-17T15:10:39.405Z,33.00
2022-08-17T15:13:17.028Z,33.45
2022-08-17T15:15:43.358Z,34.90
2022-08-17T15:18:09.682Z,31.67
2022-08-17T15:20:35.980Z,32.10
2022-08-17T15:23:02.317Z,32.67
2022-08-17T15:25:29.703Z,30.73
2022-08-17T15:27:56.170Z,29.67
2022-08-17T15:32:54.411Z,30.05
2022-08-17T15:35:27.073Z,30.80
2022-08-17T15:37:54.003Z,30.83
2022-08-17T15:40:20.416Z,29.48
2022-08-17T15:42:46.926Z,27.48
2022-08-17T15:47:40.115Z,30.00
2022-08-17T15:52:39.984Z,29.10
2022-08-17T15:55:08.849Z,26.17
2022-08-17T15:57:36.116Z,31.27
2022-08-17T16:00:03.588Z,29.08
2022-08-17T16:03:13.819Z,26.17
2022-08-17T16:05:21.910Z,28.70
2022-08-17T16:07:50.952Z,25.42
2022-08-17T16:10:19.198Z,23.60
2022-08-17T16:12:46.702Z,29.88
2022-08-17T16:15:13.778Z,26.20
2022-08-17T16:17:43.155Z,24.80
2022-08-17T16:20:10.457Z,28.13
2022-08-17T16:22:47.717Z,28.00
2022-08-17T16:25:16.752Z,29.30
2022-08-17T16:27:43.465Z,33.00
2022-08-17T16:30:17.045Z,32.40
2022-08-17T16:32:44.466Z,31.40
2022-08-17T16:37:39.449Z,36.00
2022-08-17T16:40:08.412Z,32.97
2022-08-17T16:42:36.984Z,30.67
2022-08-17T16:45:23.802Z,32.58
2022-08-17T16:47:50.536Z,32.33
2022-08-17T16:50:18.655Z,32.05
2022-08-17T16:52:48.414Z,31.92
2022-08-17T16:55:16.414Z,32.13
2022-08-17T16:57:47.370Z,34.13
2022-08-17T17:00:16.544Z,33.15
2022-08-17T17:02:46.086Z,36.55
2022-08-17T17:05:38.801Z,35.78
2022-08-17T17:08:09.757Z,36.80
2022-08-17T17:10:43.066Z,35.90
2022-08-17T17:13:32.237Z,37.83
2022-08-17T17:16:00.749Z,37.50
2022-08-17T17:18:38.178Z,43.65
2022-08-17T17:23:50.105Z,42.72
2022-08-17T17:26:35.441Z,40.22
2022-08-17T17:29:06.011Z,45.88
2022-08-17T17:31:38.137Z,42.97
2022-08-17T17:34:05.701Z,45.40
2022-08-17T17:36:41.156Z,42.40
2022-08-17T17:39:13.199Z,44.13
2022-08-17T17:41:59.522Z,42.88
2022-08-17T17:44:28.726Z,44.08
2022-08-17T17:47:02.317Z,49.45
2022-08-17T17:49:30.447Z,44.33
2022-08-17T17:52:10.213Z,47.92
2022-08-17T17:54:40.977Z,47.55
2022-08-17T17:57:10.969Z,46.35
2022-08-17T17:59:46.475Z,46.55
2022-08-17T18:02:51.445Z,48.55
2022-08-17T18:05:28.131Z,51.25
2022-08-17T18:08:00.722Z,52.65
2022-08-17T18:10:37.105Z,47.97
2022-08-17T18:13:13.870Z,48.13
2022-08-17T18:15:42.992Z,50.42
2022-08-17T18:18:18.171Z,47.85
2022-08-17T18:20:53.197Z,51.20
2022-08-17T18:23:25.543Z,47.15
2022-08-17T18:25:54.621Z,49.55
2022-08-17T18:28:26.921Z,51.95
2022-08-17T18:31:12.087Z,53.28
2022-08-17T18:33:39.817Z,49.72
2022-08-17T18:36:06.799Z,52.15
2022-08-17T18:41:17.099Z,51.45
2022-08-17T18:43:52.690Z,48.00
2022-08-17T18:46:28.616Z,49.75
2022-08-17T18:49:07.599Z,51.22
2022-08-17T18:51:42.181Z,47.08
2022-08-17T18:56:41.355Z,45.28
2022-08-17T18:59:27.183Z,45.47
2022-08-17T19:01:58.206Z,44.33
2022-08-17T19:04:34.702Z,46.08
2022-08-17T19:07:10.325Z,43.78
2022-08-17T19:09:39.815Z,45.53
2022-08-17T19:12:08.137Z,47.08
2022-08-17T19:14:34.499Z,46.28
2022-08-17T19:17:05.467Z,47.72
2022-08-17T19:19:47.229Z,40.55
2022-08-17T19:22:28.782Z,47.83
2022-08-17T19:25:11.252Z,48.20
2022-08-17T19:28:04.145Z,40.03
2022-08-17T19:30:48.757Z,48.72
2022-08-17T19:33:17.249Z,50.05
2022-08-17T19:36:18.595Z,46.80
2022-08-17T19:38:50.367Z,48.80
2022-08-17T19:41:33.935Z,51.28
2022-08-17T19:44:12.285Z,50.78
2022-08-17T19:46:39.223Z,50.35
2022-08-17T19:49:21.402Z,53.38
2022-08-17T19:52:06.486Z,53.00
2022-08-17T19:54:47.897Z,51.60
2022-08-17T19:57:18.206Z,55.35
2022-08-17T20:00:00.978Z,59.55
2022-08-17T20:02:39.427Z,52.20
2022-08-17T20:05:11.254Z,54.63
2022-08-17T20:07:45.855Z,49.60
2022-08-17T20:10:20.971Z,48.63
2022-08-17T20:12:51.514Z,52.47
2022-08-17T20:15:22.869Z,55.63
2022-08-17T20:17:49.330Z,54.38
2022-08-17T20:20:47.262Z,54.60
2022-08-17T20:23:28.964Z,49.27
2022-08-17T20:26:18.960Z,48.97
2022-08-17T20:29:06.049Z,51.53
2022-08-17T20:31:40.155Z,51.85
2022-08-17T20:34:25.316Z,50.72
2022-08-17T20:37:06.109Z,55.83
2022-08-17T20:39:42.511Z,57.30
2022-08-17T20:42:08.873Z,58.40
2022-08-17T20:44:37.766Z,54.35
2022-08-17T20:47:07.148Z,58.10
2022-08-17T20:49:33.392Z,62.30
2022-08-17T20:52:07.715Z,59.35
2022-08-17T20:54:43.038Z,58.72
2022-08-17T20:57:13.932Z,55.97
2022-08-17T20:59:43.492Z,61.15
2022-08-17T21:02:19.335Z,60.70
2022-08-17T21:04:54.314Z,71.28
2022-08-17T21:07:23.574Z,66.13
2022-08-17T21:09:50.678Z,63.38
2022-08-17T21:14:43.384Z,64.05
2022-08-17T21:17:29.675Z,69.43
2022-08-17T21:20:10.862Z,71.57
2022-08-17T21:22:38.298Z,75.10
2022-08-17T21:25:16.900Z,70.90
2022-08-17T21:27:56.045Z,67.47
2022-08-17T21:30:44.448Z,70.82
2022-08-17T21:33:20.180Z,62.55
2022-08-17T21:36:05.375Z,67.72
2022-08-17T21:38:36.017Z,65.53
2022-08-17T21:41:02.348Z,57.47
2022-08-17T21:43:32.359Z,59.58
2022-08-17T21:46:01.066Z,61.50
2022-08-17T21:48:28.530Z,64.90
2022-08-17T21:51:00.892Z,60.03
2022-08-17T21:53:33.170Z,57.28
2022-08-17T21:55:59.905Z,61.05
2022-08-17T21:58:34.334Z,64.63
2022-08-17T22:01:22.409Z,65.60
2022-08-17T22:04:14.990Z,62.85
2022-08-17T22:06:56.953Z,60.67
2022-08-17T22:09:34.071Z,66.45
2022-08-17T22:12:06.573Z,66.90
2022-08-17T22:14:53.191Z,66.35
2022-08-17T22:17:23.449Z,63.23
2022-08-17T22:19:51.558Z,67.55
2022-08-17T22:23:02.745Z,67.75
2022-08-17T22:25:31.004Z,60.30
2022-08-17T22:28:00.457Z,65.25
2022-08-17T22:30:40.579Z,65.43
2022-08-17T22:33:25.496Z,65.60
2022-08-17T22:36:07.692Z,66.05
2022-08-17T22:38:34.216Z,70.78
2022-08-17T22:41:17.395Z,64.32
2022-08-17T22:43:44.804Z,71.10
2022-08-17T22:46:11.939Z,70.38
2022-08-17T22:48:47.962Z,72.30
2022-08-17T22:51:17.354Z,65.20
2022-08-17T22:54:09.269Z,64.97
2022-08-17T22:56:54.641Z,67.35
2022-08-17T22:59:57.477Z,64.88
2022-08-17T23:02:34.191Z,56.42
2022-08-17T23:05:10.131Z,63.40
2022-08-17T23:07:36.507Z,63.38
2022-08-17T23:10:06.378Z,59.85
2022-08-17T23:12:38.785Z,59.40
2022-08-17T23:15:09.532Z,57.10
2022-08-17T23:17:37.569Z,60.67
2022-08-17T23:20:05.899Z,67.85
2022-08-17T23:22:32.749Z,68.65
2022-08-17T23:24:59.744Z,66.07
2022-08-17T23:29:55.888Z,64.70
2022-08-17T23:32:22.784Z,71.32
2022-08-17T23:34:52.188Z,69.72
2022-08-17T23:37:19.055Z,70.90
2022-08-17T23:39:45.988Z,68.57
2022-08-17T23:42:15.048Z,68.18
2022-08-17T23:44:43.599Z,67.72
2022-08-17T23:47:13.403Z,68.63
2022-08-17T23:49:41.240Z,62.33
2022-08-17T23:52:09.929Z,60.33
2022-08-17T23:54:41.405Z,60.92
2022-08-17T23:57:09.127Z,67.30
2022-08-17T23:59:37.171Z,63.63
